createdAt,value
2018-05-13T00:00:07.295Z,23.10
2018-05-13T00:04:09.838Z,22.30
2018-05-13T00:08:13.140Z,23.03
2018-05-13T00:12:15.657Z,22.47
2018-05-13T00:16:18.195Z,22.63
2018-05-13T00:20:20.743Z,22.40
2018-05-13T00:24:23.292Z,22.63
2018-05-13T00:28:26.592Z,21.43
2018-05-13T00:32:29.880Z,21.30
2018-05-13T00:36:32.424Z,22.10
2018-05-13T00:40:34.956Z,22.50
2018-05-13T00:44:38.269Z,23.00
2018-05-13T00:48:41.567Z,22.97
2018-05-13T00:52:44.850Z,22.10
2018-05-13T00:56:47.384Z,21.90
2018-05-13T01:00:49.934Z,22.20
2018-05-13T01:04:53.241Z,22.47
2018-05-13T01:08:56.550Z,21.67
2018-05-13T01:12:59.823Z,24.27
2018-05-13T01:17:02.355Z,22.47
2018-05-13T01:21:04.907Z,22.50
2018-05-13T01:25:07.445Z,24.90
2018-05-13T01:29:09.985Z,24.93
2018-05-13T01:33:13.263Z,24.40
2018-05-13T01:37:15.811Z,23.67
2018-05-13T01:41:18.346Z,23.80
2018-05-13T01:45:20.909Z,24.53
2018-05-13T01:49:23.461Z,23.50
2018-05-13T01:53:25.976Z,23.43
2018-05-13T01:57:28.535Z,26.27
2018-05-13T02:01:31.837Z,24.23
2018-05-13T02:05:34.383Z,23.90
2018-05-13T02:09:37.679Z,24.40
2018-05-13T02:13:40.211Z,23.97
2018-05-13T02:17:43.507Z,23.80
2018-05-13T02:21:46.049Z,24.50
2018-05-13T02:25:48.583Z,25.13
2018-05-13T02:29:51.121Z,22.63
2018-05-13T02:33:53.655Z,23.10
2018-05-13T02:37:56.179Z,22.53
2018-05-13T02:41:58.705Z,22.33
2018-05-13T02:46:01.251Z,21.93
2018-05-13T02:50:03.792Z,21.13
2018-05-13T02:54:06.336Z,23.10
2018-05-13T02:58:09.608Z,22.57
2018-05-13T03:02:12.149Z,22.50
2018-05-13T03:06:14.690Z,21.73
2018-05-13T03:10:17.219Z,21.53
2018-05-13T03:14:19.752Z,21.93
2018-05-13T03:18:22.267Z,21.60
2018-05-13T03:22:25.621Z,21.07
2018-05-13T03:26:28.176Z,23.07
2018-05-13T03:30:30.721Z,22.77
2018-05-13T03:34:34.068Z,22.77
2018-05-13T03:38:36.592Z,22.87
2018-05-13T03:42:39.122Z,22.43
2018-05-13T03:46:41.668Z,22.97
2018-05-13T03:50:44.203Z,23.27
2018-05-13T03:54:46.732Z,24.40
2018-05-13T03:58:49.247Z,23.77
2018-05-13T04:02:52.554Z,25.07
2018-05-13T04:06:55.092Z,23.90
2018-05-13T04:11:09.367Z,25.80
2018-05-13T04:15:23.735Z,24.53
2018-05-13T04:19:26.248Z,23.57
2018-05-13T04:23:29.550Z,24.87
2018-05-13T04:27:32.857Z,24.67
2018-05-13T04:31:36.180Z,24.77
2018-05-13T04:35:38.747Z,25.50
2018-05-13T04:39:42.031Z,26.17
2018-05-13T04:43:44.569Z,25.00
2018-05-13T04:47:47.109Z,25.60
2018-05-13T04:51:50.417Z,26.03
2018-05-13T04:55:53.721Z,26.03
2018-05-13T04:59:57.007Z,27.10
2018-05-13T05:03:59.535Z,26.07
2018-05-13T05:08:02.073Z,25.87
2018-05-13T05:12:04.620Z,25.90
2018-05-13T05:16:07.158Z,24.83
2018-05-13T05:20:10.435Z,26.40
2018-05-13T05:24:12.967Z,26.43
2018-05-13T05:28:15.490Z,25.60
2018-05-13T05:32:18.031Z,28.10
2018-05-13T05:36:20.583Z,26.83
2018-05-13T05:40:23.116Z,26.97
2018-05-13T05:44:25.627Z,28.13
2018-05-13T05:48:28.233Z,27.43
2018-05-13T05:52:30.719Z,26.57
2018-05-13T05:56:33.250Z,26.83
2018-05-13T06:00:35.788Z,27.43
2018-05-13T06:04:38.320Z,27.93
2018-05-13T06:08:40.864Z,25.43
2018-05-13T06:12:43.413Z,28.70
2018-05-13T06:16:45.962Z,25.87
2018-05-13T06:20:48.512Z,27.20
2018-05-13T06:24:51.040Z,27.77
2018-05-13T06:28:53.588Z,26.90
2018-05-13T06:32:56.136Z,27.00
2018-05-13T06:36:58.682Z,28.97
2018-05-13T06:41:03.766Z,26.07
2018-05-13T06:45:06.520Z,26.07
2018-05-13T06:49:09.056Z,27.90
2018-05-13T06:53:11.596Z,27.67
2018-05-13T06:57:14.185Z,25.93
2018-05-13T07:01:16.697Z,24.60
2018-05-13T07:05:19.213Z,29.20
2018-05-13T07:09:21.746Z,29.40
2018-05-13T07:13:24.287Z,27.40
2018-05-13T07:17:26.820Z,27.20
2018-05-13T07:21:29.351Z,28.17
2018-05-13T07:25:31.864Z,26.93
2018-05-13T07:29:34.400Z,25.20
2018-05-13T07:33:36.944Z,28.67
2018-05-13T07:37:39.482Z,26.53
2018-05-13T07:41:42.028Z,27.20
2018-05-13T07:45:47.776Z,28.23
2018-05-13T07:49:51.263Z,27.37
2018-05-13T07:53:54.564Z,27.80
2018-05-13T07:57:57.913Z,26.27
2018-05-13T08:02:00.413Z,29.40
2018-05-13T08:06:02.955Z,25.03
2018-05-13T08:10:05.483Z,26.77
2018-05-13T08:14:08.115Z,26.47
2018-05-13T08:18:10.569Z,24.83
2018-05-13T08:22:13.098Z,25.10
2018-05-13T08:26:15.631Z,25.90
2018-05-13T08:30:18.153Z,26.43
2018-05-13T08:34:21.451Z,24.73
2018-05-13T08:38:24.747Z,26.10
2018-05-13T08:42:28.268Z,24.50
2018-05-13T08:46:31.567Z,25.13
2018-05-13T08:50:34.841Z,24.30
2018-05-13T08:54:37.387Z,23.83
2018-05-13T08:58:39.930Z,23.43
2018-05-13T09:02:43.231Z,23.17
2018-05-13T09:06:46.538Z,23.10
2018-05-13T09:10:49.819Z,24.10
2018-05-13T09:14:52.347Z,22.30
2018-05-13T09:18:54.881Z,23.73
2018-05-13T09:22:57.428Z,23.00
2018-05-13T09:26:59.959Z,23.03
2018-05-13T09:31:02.479Z,22.83
2018-05-13T09:35:05.024Z,22.40
2018-05-13T09:39:07.640Z,20.60
2018-05-13T09:43:10.179Z,21.17
2018-05-13T09:47:12.728Z,21.93
2018-05-13T09:51:15.399Z,20.63
2018-05-13T09:55:17.959Z,19.73
2018-05-13T09:59:20.504Z,20.40
2018-05-13T10:03:23.044Z,17.97
2018-05-13T10:07:26.356Z,17.00
2018-05-13T10:11:29.631Z,15.93
2018-05-13T10:15:32.174Z,16.17
2018-05-13T10:19:34.745Z,16.20
2018-05-13T10:23:37.318Z,17.17
2018-05-13T10:27:40.642Z,15.43
2018-05-13T10:31:43.154Z,14.73
2018-05-13T10:35:45.695Z,16.10
2018-05-13T10:39:48.227Z,15.73
2018-05-13T10:43:50.764Z,15.57
2018-05-13T10:47:53.295Z,14.77
2018-05-13T10:51:55.839Z,16.47
2018-05-13T10:55:58.351Z,15.80
2018-05-13T11:00:00.894Z,15.33
2018-05-13T11:04:04.203Z,15.63
2018-05-13T11:08:06.739Z,15.37
2018-05-13T11:12:09.279Z,16.00
2018-05-13T11:16:11.800Z,13.10
2018-05-13T11:20:14.371Z,12.37
2018-05-13T11:24:16.890Z,11.00
2018-05-13T11:28:19.458Z,11.63
2018-05-13T11:32:21.995Z,10.77
2018-05-13T11:36:24.511Z,11.17
2018-05-13T11:40:27.043Z,10.70
2018-05-13T11:44:29.918Z,11.53
2018-05-13T11:48:32.461Z,10.53
2018-05-13T11:52:35.019Z,11.80
2018-05-13T11:56:37.555Z,11.03
2018-05-13T12:00:40.103Z,12.27
2018-05-13T12:04:43.237Z,10.93
2018-05-13T12:08:45.818Z,10.77
2018-05-13T12:12:48.355Z,10.70
2018-05-13T12:16:51.639Z,10.57
2018-05-13T12:20:54.199Z,10.67
2018-05-13T12:24:56.763Z,11.20
2018-05-13T12:28:59.385Z,10.63
2018-05-13T12:33:02.621Z,10.55
2018-05-13T12:37:05.903Z,10.55
2018-05-13T12:41:08.434Z,10.40
2018-05-13T12:45:10.968Z,10.65
2018-05-13T12:49:13.504Z,10.48
2018-05-13T12:53:16.047Z,10.47
2018-05-13T12:57:18.577Z,10.27
2018-05-13T13:01:21.117Z,9.18
2018-05-13T13:05:23.667Z,9.15
2018-05-13T13:09:26.207Z,7.93
2018-05-13T13:13:28.751Z,8.75
2018-05-13T13:17:31.281Z,8.50
2018-05-13T13:21:33.831Z,8.85
2018-05-13T13:25:36.359Z,8.60
2018-05-13T13:29:38.882Z,7.95
2018-05-13T13:33:41.413Z,7.78
2018-05-13T13:37:44.691Z,9.27
2018-05-13T13:41:47.223Z,8.75
2018-05-13T13:45:49.758Z,8.20
2018-05-13T13:49:52.285Z,7.53
2018-05-13T13:53:54.826Z,7.35
2018-05-13T13:57:57.356Z,7.65
2018-05-13T14:01:59.867Z,7.70
2018-05-13T14:06:02.391Z,7.40
2018-05-13T14:10:05.683Z,7.07
2018-05-13T14:14:08.998Z,7.17
2018-05-13T14:18:12.295Z,7.53
2018-05-13T14:22:14.804Z,6.90
2018-05-13T14:26:17.341Z,6.80
2018-05-13T14:30:19.871Z,7.70
2018-05-13T14:34:23.440Z,7.57
2018-05-13T14:38:26.787Z,7.03
2018-05-13T14:42:30.095Z,6.87
2018-05-13T14:46:33.586Z,7.27
2018-05-13T14:50:36.896Z,7.07
2018-05-13T14:54:40.220Z,7.40
2018-05-13T14:58:42.755Z,6.37
2018-05-13T15:02:45.306Z,5.90
2018-05-13T15:06:48.620Z,5.67
2018-05-13T15:10:51.152Z,6.13
2018-05-13T15:14:54.443Z,5.10
2018-05-13T15:18:56.967Z,5.23
2018-05-13T15:22:59.471Z,4.87
2018-05-13T15:27:02.009Z,5.10
2018-05-13T15:31:05.344Z,5.40
2018-05-13T15:35:07.871Z,5.13
2018-05-13T15:39:10.400Z,5.07
2018-05-13T15:43:13.043Z,4.63
2018-05-13T15:47:15.567Z,5.53
2018-05-13T15:51:18.132Z,4.67
2018-05-13T15:55:21.058Z,4.90
2018-05-13T15:59:23.652Z,5.07
2018-05-13T16:03:26.187Z,5.03
2018-05-13T16:07:28.714Z,5.47
2018-05-13T16:11:31.239Z,5.10
2018-05-13T16:15:33.770Z,5.20
2018-05-13T16:19:36.291Z,5.00
2018-05-13T16:23:38.800Z,5.60
2018-05-13T16:27:41.327Z,7.30
2018-05-13T16:31:43.847Z,6.97
2018-05-13T16:35:46.380Z,7.87
2018-05-13T16:39:49.676Z,8.00
2018-05-13T16:43:52.975Z,8.90
2018-05-13T16:47:56.256Z,10.30
2018-05-13T16:51:58.794Z,11.27
2018-05-13T16:56:01.343Z,12.07
2018-05-13T17:00:04.676Z,11.77
2018-05-13T17:04:07.216Z,12.30
2018-05-13T17:08:09.809Z,12.40
2018-05-13T17:12:12.343Z,12.40
2018-05-13T17:16:14.930Z,10.17
2018-05-13T17:20:17.463Z,6.77
2018-05-13T17:24:20.212Z,6.37
2018-05-13T17:28:22.720Z,5.63
2018-05-13T17:32:25.255Z,5.77
2018-05-13T17:40:34.547Z,5.00
2018-05-13T17:44:37.075Z,5.73
2018-05-13T17:48:40.147Z,5.03
2018-05-13T17:52:42.686Z,7.13
2018-05-13T17:56:45.982Z,6.50
2018-05-13T18:00:49.347Z,19.17
2018-05-13T18:04:51.840Z,7.80
2018-05-13T18:08:54.352Z,9.00
2018-05-13T18:12:57.656Z,9.50
2018-05-13T18:17:02.402Z,12.20
2018-05-13T18:21:05.099Z,11.73
2018-05-13T18:25:07.664Z,14.33
2018-05-13T18:29:10.950Z,15.20
2018-05-13T18:33:13.488Z,16.83
2018-05-13T18:37:16.028Z,16.63
2018-05-13T18:41:19.335Z,16.40
2018-05-13T18:45:21.932Z,17.33
2018-05-13T18:49:25.215Z,16.97
2018-05-13T18:53:27.756Z,16.10
2018-05-13T18:57:30.303Z,14.50
2018-05-13T19:01:33.612Z,13.83
2018-05-13T19:05:36.158Z,14.10
2018-05-13T19:09:38.692Z,14.13
2018-05-13T19:13:41.208Z,14.07
2018-05-13T19:17:43.739Z,13.13
2018-05-13T19:21:47.052Z,12.60
2018-05-13T19:25:50.375Z,12.47
2018-05-13T19:29:52.912Z,12.83
2018-05-13T19:33:55.429Z,12.97
2018-05-13T19:37:57.995Z,12.63
2018-05-13T19:42:01.295Z,13.53
2018-05-13T19:46:04.608Z,13.63
2018-05-13T19:50:07.913Z,13.20
2018-05-13T19:54:10.487Z,14.40
2018-05-13T19:58:12.991Z,13.53
2018-05-13T20:02:15.524Z,14.67
2018-05-13T20:06:18.055Z,15.20
2018-05-13T20:10:21.357Z,14.30
2018-05-13T20:14:24.639Z,17.07
2018-05-13T20:18:27.179Z,16.67
2018-05-13T20:22:29.715Z,16.37
2018-05-13T20:26:33.018Z,16.87
2018-05-13T20:30:35.562Z,18.87
2018-05-13T20:34:38.075Z,18.60
2018-05-13T20:38:40.603Z,19.60
2018-05-13T20:42:43.151Z,20.10
2018-05-13T20:46:45.692Z,22.13
2018-05-13T20:50:48.231Z,20.30
2018-05-13T20:54:51.524Z,19.17
2018-05-13T20:58:54.051Z,22.37
2018-05-13T21:02:56.582Z,21.53
2018-05-13T21:06:59.121Z,23.70
2018-05-13T21:11:01.660Z,23.10
2018-05-13T21:15:04.173Z,24.23
2018-05-13T21:19:06.713Z,26.07
2018-05-13T21:23:09.242Z,25.93
2018-05-13T21:27:12.535Z,25.07
2018-05-13T21:31:15.837Z,27.57
2018-05-13T21:35:19.124Z,27.43
2018-05-13T21:39:21.886Z,27.67
2018-05-13T21:43:25.147Z,29.20
2018-05-13T21:47:28.589Z,27.23
2018-05-13T21:51:31.139Z,27.20
2018-05-13T21:55:33.707Z,26.73
2018-05-13T21:59:37.004Z,28.90
2018-05-13T22:03:40.304Z,28.60
2018-05-13T22:07:43.604Z,27.27
2018-05-13T22:11:46.165Z,28.57
2018-05-13T22:15:49.292Z,29.80
2018-05-13T22:19:52.681Z,30.23
2018-05-13T22:23:55.211Z,29.43
2018-05-13T22:27:58.531Z,30.70
2018-05-13T22:32:01.067Z,30.40
2018-05-13T22:36:03.633Z,26.67
2018-05-13T22:40:06.152Z,27.60
2018-05-13T22:44:09.539Z,28.27
2018-05-13T22:48:12.093Z,26.17
2018-05-13T22:52:14.711Z,28.07
2018-05-13T22:56:17.187Z,29.43
2018-05-13T23:00:19.808Z,26.03
2018-05-13T23:04:22.270Z,29.73
2018-05-13T23:08:25.568Z,28.47
2018-05-13T23:12:28.108Z,25.60
2018-05-13T23:16:30.656Z,27.37
2018-05-13T23:20:33.927Z,24.73
2018-05-13T23:24:36.463Z,26.00
2018-05-13T23:28:39.076Z,25.77
2018-05-13T23:32:42.312Z,26.60
2018-05-13T23:36:44.843Z,27.50
2018-05-13T23:40:47.363Z,25.23
2018-05-13T23:44:49.890Z,23.43
2018-05-13T23:48:52.432Z,26.63
2018-05-13T23:52:54.970Z,24.17
2018-05-13T23:56:57.508Z,22.27
